Time;durP1;ratioP1;P1;durP2;ratioP2;P2;SDS_P1;SDS_P2;PMS_P1;PMS_P2;Temp;Humidity;BMP_temperature;BMP_pressure;BME280_temperature;BME280_humidity;BME280_pressure;Samples;Min_cycle;Max_cycle;Signal;HPM_P1;HPM_P2
2022/11/14 00:00:29;;;;;;;;;33.50;30.75;;;;;11.03;70.59;101039.13;4851648;29;47430;-65
2022/11/14 00:02:59;;;;;;;;;31.50;27.75;;;;;11.04;71.42;101035.50;4864666;29;45512;-65
2022/11/14 00:05:24;;;;;;;;;30.00;29.75;;;;;11.06;70.75;101039.00;4846761;29;45545;-65
2022/11/14 00:07:50;;;;;;;;;30.00;25.75;;;;;10.92;71.06;101015.38;4847794;29;45519;-65
2022/11/14 00:10:16;;;;;;;;;32.25;27.75;;;;;10.95;71.01;101015.28;4864405;29;45433;-65
2022/11/14 00:12:41;;;;;;;;;38.00;30.50;;;;;11.01;71.07;101023.13;4864676;29;45441;-65
2022/11/14 00:15:08;;;;;;;;;39.75;34.00;;;;;10.93;70.89;101018.00;4864888;29;45382;-65
2022/11/14 00:17:33;;;;;;;;;43.00;34.00;;;;;11.01;71.24;101036.50;4864037;29;45600;-65
2022/11/14 00:19:58;;;;;;;;;37.75;35.75;;;;;11.00;70.99;101037.41;4864258;29;46213;-65
2022/11/14 00:22:25;;;;;;;;;38.50;34.75;;;;;10.91;70.93;101017.19;4859895;29;45448;-65
2022/11/14 00:24:50;;;;;;;;;41.75;36.25;;;;;10.92;71.45;101023.38;4863409;29;45501;-65
2022/11/14 00:27:15;;;;;;;;;34.25;33.25;;;;;10.87;71.53;101018.19;4863503;29;45497;-65
2022/11/14 00:29:41;;;;;;;;;32.50;30.25;;;;;10.94;71.70;101026.88;4863964;29;46074;-65
2022/11/14 00:32:06;;;;;;;;;35.25;32.00;;;;;10.93;71.34;101022.47;4864416;29;45429;-65
2022/11/14 00:34:32;;;;;;;;;31.75;29.75;;;;;10.84;71.45;100996.03;4864482;29;45445;-65
2022/11/14 00:36:58;;;;;;;;;35.25;32.00;;;;;10.93;71.26;101018.00;4864040;29;45576;-65
2022/11/14 00:39:23;;;;;;;;;33.50;31.75;;;;;10.74;70.91;100992.75;4863908;29;45605;-65
2022/11/14 00:41:49;;;;;;;;;36.50;32.00;;;;;10.92;71.32;101020.72;4863042;29;45376;-65
2022/11/14 00:44:15;;;;;;;;;32.25;25.75;;;;;10.77;70.83;101002.47;4864449;29;45398;-65
2022/11/14 00:46:40;;;;;;;;;24.25;22.75;;;;;10.85;71.71;101017.34;4864196;29;45248;-65
2022/11/14 00:49:06;;;;;;;;;32.50;31.00;;;;;10.64;71.47;100976.16;4863694;29;45413;-65
2022/11/14 00:51:31;;;;;;;;;30.25;29.00;;;;;10.75;71.54;100994.50;4864059;29;45378;-65
2022/11/14 00:53:56;;;;;;;;;32.50;27.75;;;;;10.67;71.51;100983.19;4864064;29;45349;-65
2022/11/14 00:56:21;;;;;;;;;29.50;26.00;;;;;10.78;70.88;101002.44;4846399;29;45834;-65
2022/11/14 00:58:47;;;;;;;;;27.75;25.75;;;;;10.61;71.24;101004.69;4863788;29;45323;-65
2022/11/14 01:01:12;;;;;;;;;33.00;27.25;;;;;10.53;71.41;100999.59;4864144;29;45349;-65
2022/11/14 01:03:38;;;;;;;;;24.50;22.75;;;;;10.63;71.59;101011.75;4864125;29;45661;-65
2022/11/14 01:06:06;;;;;;;;;29.25;24.75;;;;;10.58;71.84;100995.00;4847159;29;45539;-65
2022/11/14 01:08:31;;;;;;;;;30.50;26.00;;;;;10.46;71.65;100972.19;4863846;29;45478;-64
2022/11/14 01:10:57;;;;;;;;;30.00;27.25;;;;;10.67;71.94;100997.38;4866662;29;45556;-65
2022/11/14 01:13:23;;;;;;;;;27.25;24.00;;;;;10.65;71.34;100996.56;4850376;29;45366;-65
2022/11/14 01:15:49;;;;;;;;;33.50;28.50;;;;;10.55;71.37;100987.06;4867091;29;45462;-65
2022/11/14 01:18:18;;;;;;;;;34.25;27.75;;;;;10.70;71.60;101002.66;4866619;29;45936;-65
2022/11/14 01:20:46;;;;;;;;;22.50;19.50;;;;;10.70;71.75;100994.63;4849900;29;45515;-65
2022/11/14 01:23:14;;;;;;;;;35.50;26.00;;;;;10.69;71.62;100984.00;4850018;29;45546;-65
2022/11/14 01:25:40;;;;;;;;;38.00;32.25;;;;;10.65;71.51;100977.88;4865677;29;45444;-65
2022/11/14 01:28:10;;;;;;;;;29.25;25.75;;;;;10.73;71.45;100981.19;4850107;29;45461;-65
2022/11/14 01:30:36;;;;;;;;;34.75;27.50;;;;;10.76;71.74;100982.94;4865401;29;45856;-65
2022/11/14 01:33:02;;;;;;;;;30.50;27.75;;;;;10.73;71.96;100975.00;4866928;29;45398;-65
2022/11/14 01:35:28;;;;;;;;;33.00;26.75;;;;;10.71;71.60;100966.16;4866909;29;45352;-65
2022/11/14 01:37:53;;;;;;;;;38.50;31.50;;;;;10.51;71.99;100932.91;4863865;29;45465;-65
2022/11/14 01:40:19;;;;;;;;;41.50;32.25;;;;;10.78;71.42;100972.19;4866764;29;45301;-65
2022/11/14 01:43:15;;;;;;;;;32.00;30.50;;;;;10.78;71.75;100981.06;4850082;29;45708;-65
2022/11/14 01:46:03;;;;;;;;;30.25;26.00;;;;;10.76;71.57;100972.25;4866552;29;45325;-65
2022/11/14 01:48:36;;;;;;;;;35.50;29.25;;;;;10.65;71.56;100955.66;4854465;29;46060;-65
2022/11/14 01:51:28;;;;;;;;;31.75;26.50;;;;;10.64;71.49;100948.56;4866804;29;45616;-64
2022/11/14 01:53:57;;;;;;;;;28.75;27.00;;;;;10.46;71.74;100910.81;4865971;29;45363;-65
2022/11/14 01:56:35;;;;;;;;;29.75;27.50;;;;;10.71;71.95;100953.69;4864755;29;45580;-65
2022/11/14 01:59:10;;;;;;;;;31.50;27.75;;;;;10.60;71.32;100939.75;4854727;29;45563;-65
2022/11/14 02:01:43;;;;;;;;;30.00;29.50;;;;;10.56;71.79;100925.63;4834156;29;46084;-65
2022/11/14 02:04:10;;;;;;;;;30.00;26.00;;;;;10.72;71.59;100951.88;4866684;29;45480;-65
2022/11/14 02:06:37;;;;;;;;;29.50;24.50;;;;;10.54;71.21;100923.91;4849210;29;45533;-65
2022/11/14 02:09:05;;;;;;;;;32.50;31.00;;;;;10.77;71.07;100973.09;4866337;29;45616;-65
2022/11/14 02:11:36;;;;;;;;;25.25;19.00;;;;;10.69;71.54;100967.97;4866271;29;45386;-65
2022/11/14 02:14:02;;;;;;;;;28.50;25.75;;;;;10.72;71.66;100960.75;4866460;29;45393;-65
2022/11/14 02:16:28;;;;;;;;;29.00;27.50;;;;;10.60;71.13;100945.09;4866134;29;45261;-65
2022/11/14 02:18:53;;;;;;;;;30.75;27.50;;;;;10.64;71.22;100949.44;4865627;29;45240;-65
2022/11/14 02:21:19;;;;;;;;;34.75;26.25;;;;;10.70;71.71;100959.06;4863362;29;45298;-65
2022/11/14 02:23:44;;;;;;;;;30.75;28.25;;;;;10.69;71.56;100958.19;4847900;29;45587;-65
2022/11/14 02:26:09;;;;;;;;;29.00;25.50;;;;;10.62;71.30;100940.59;4848022;29;45427;-65
2022/11/14 02:28:35;;;;;;;;;27.75;24.25;;;;;10.72;71.81;100954.53;4858317;29;47986;-65
2022/11/14 02:31:00;;;;;;;;;35.75;29.75;;;;;10.73;71.42;100950.97;4860128;29;45616;-65
2022/11/14 02:33:26;;;;;;;;;30.75;30.00;;;;;10.61;71.80;100921.94;4849367;29;45385;-65
2022/11/14 02:35:51;;;;;;;;;29.75;26.00;;;;;10.78;71.41;100951.69;4849170;29;45399;-65
2022/11/14 02:38:16;;;;;;;;;36.75;29.75;;;;;10.67;71.37;100933.31;4864119;29;47950;-65
2022/11/14 02:40:42;;;;;;;;;25.00;23.50;;;;;10.72;71.34;100942.06;4848976;29;45956;-65
2022/11/14 02:43:07;;;;;;;;;27.50;24.75;;;;;10.72;71.64;100942.06;4849292;29;45332;-65
2022/11/14 02:45:33;;;;;;;;;27.75;22.50;;;;;10.69;71.72;100935.94;4864582;29;45493;-65
2022/11/14 02:47:58;;;;;;;;;24.50;23.25;;;;;10.71;71.25;100936.78;4865384;29;46445;-65
2022/11/14 02:50:23;;;;;;;;;24.00;21.25;;;;;10.61;71.40;100921.94;4848932;29;45523;-65
2022/11/14 02:52:49;;;;;;;;;23.75;23.00;;;;;10.67;71.20;100930.66;4849083;29;45521;-65
2022/11/14 02:55:14;;;;;;;;;21.50;19.00;;;;;10.53;71.17;100916.84;4864437;29;45507;-65
2022/11/14 02:57:39;;;;;;;;;23.25;19.50;;;;;10.47;71.48;100909.00;4847529;29;48031;-65
2022/11/14 03:00:05;;;;;;;;;17.00;15.75;;;;;10.48;71.63;100910.78;4848842;29;45461;-65
2022/11/14 03:02:31;;;;;;;;;23.25;20.75;;;;;10.50;71.67;100911.59;4864835;29;45501;-65
2022/11/14 03:04:56;;;;;;;;;21.50;18.50;;;;;10.47;71.67;100901.00;4865542;29;45451;-65
2022/11/14 03:07:21;;;;;;;;;20.25;16.00;;;;;10.42;71.26;100885.13;4865377;29;46157;-65
2022/11/14 03:09:47;;;;;;;;;19.00;18.50;;;;;10.56;71.58;100898.94;4865232;29;45387;-65
2022/11/14 03:12:16;;;;;;;;;20.75;20.25;;;;;10.54;71.74;100895.47;4865515;29;45548;-65
2022/11/14 03:14:42;;;;;;;;;19.25;19.00;;;;;10.50;71.00;100891.13;4848526;29;45532;-65
2022/11/14 03:17:07;;;;;;;;;23.25;18.25;;;;;10.44;71.53;100888.66;4864942;29;45435;-65
2022/11/14 03:19:32;;;;;;;;;18.50;16.75;;;;;10.50;71.52;100900.91;4864816;29;45393;-65
2022/11/14 03:21:58;;;;;;;;;18.75;18.75;;;;;10.33;71.94;100875.59;4860845;29;45250;-65
2022/11/14 03:24:23;;;;;;;;;22.00;18.00;;;;;10.30;71.67;100872.97;4864043;29;45800;-65
2022/11/14 03:26:48;;;;;;;;;18.75;16.00;;;;;10.36;71.65;100874.66;4864970;29;46263;-65
2022/11/14 03:29:14;;;;;;;;;19.50;17.00;;;;;10.36;71.61;100870.19;4865102;29;45523;-64
2022/11/14 03:31:39;;;;;;;;;15.25;15.00;;;;;10.44;72.02;100890.41;4848377;29;45328;-65
2022/11/14 03:34:05;;;;;;;;;23.75;17.75;;;;;10.40;72.27;100873.63;4848214;29;45533;-65
2022/11/14 03:36:30;;;;;;;;;20.50;18.00;;;;;10.44;71.35;100891.31;4865057;29;45485;-65
2022/11/14 03:38:55;;;;;;;;;17.00;15.75;;;;;10.42;71.56;100890.47;4847634;29;45657;-65
2022/11/14 03:41:21;;;;;;;;;24.50;18.50;;;;;10.46;71.70;100897.47;4848504;29;45512;-65
2022/11/14 03:43:46;;;;;;;;;20.75;18.25;;;;;10.33;71.69;100874.75;4864926;29;45446;-65
2022/11/14 03:46:11;;;;;;;;;20.75;20.50;;;;;10.43;71.79;100883.34;4865020;29;45469;-65
2022/11/14 03:48:37;;;;;;;;;18.75;18.00;;;;;10.34;71.85;100880.03;4864550;29;45313;-65
2022/11/14 03:51:02;;;;;;;;;21.25;16.75;;;;;10.43;72.16;100897.56;4865186;29;45444;-65
2022/11/14 03:53:27;;;;;;;;;21.00;18.50;;;;;10.35;72.17;100876.44;4848001;29;45731;-65
2022/11/14 03:55:53;;;;;;;;;18.25;16.25;;;;;10.38;71.79;100876.34;4846967;29;48256;-65
2022/11/14 03:58:18;;;;;;;;;23.50;21.00;;;;;10.48;71.76;100894.75;4864648;29;45256;-65
2022/11/14 04:00:44;;;;;;;;;26.75;19.00;;;;;10.28;72.04;100857.97;4848258;29;45352;-65
2022/11/14 04:03:09;;;;;;;;;15.50;15.50;;;;;10.30;72.22;100862.31;4847695;29;45770;-65
2022/11/14 04:05:34;;;;;;;;;17.00;15.50;;;;;10.26;72.08;100847.31;4864904;29;46595;-65
2022/11/14 04:08:00;;;;;;;;;22.25;20.00;;;;;10.47;72.26;100879.66;4847714;29;45424;-64
2022/11/14 04:10:25;;;;;;;;;17.50;17.00;;;;;10.38;71.85;100865.66;4864837;29;45859;-65
2022/11/14 04:12:52;;;;;;;;;3.75;2.00;;;;;10.37;72.34;100858.59;4864514;29;45517;-65
2022/11/14 04:15:18;;;;;;;;;26.75;17.25;;;;;10.46;71.60;100875.25;4860348;29;46998;-65
2022/11/14 04:17:45;;;;;;;;;16.25;16.00;;;;;10.41;71.58;100861.16;4860061;29;45679;-65
2022/11/14 04:20:11;;;;;;;;;22.00;17.00;;;;;10.43;71.75;100872.69;4864768;29;45461;-65
2022/11/14 04:22:36;;;;;;;;;17.00;15.00;;;;;10.35;71.84;100859.56;4859934;29;45442;-65
2022/11/14 04:25:02;;;;;;;;;17.00;14.75;;;;;10.46;72.00;100872.59;4863253;29;45513;-65
2022/11/14 04:27:28;;;;;;;;;18.00;15.00;;;;;10.51;72.26;100881.34;4864070;29;45377;-65
2022/11/14 04:29:53;;;;;;;;;15.25;15.00;;;;;10.53;72.26;100882.16;4864551;29;45476;-65
2022/11/14 04:32:18;;;;;;;;;19.75;17.50;;;;;10.56;72.10;100887.41;4847393;29;45510;-65
2022/11/14 04:34:44;;;;;;;;;16.25;15.25;;;;;10.49;72.27;100876.03;4864467;29;46212;-65
2022/11/14 04:37:09;;;;;;;;;13.50;11.75;;;;;10.46;72.02;100870.78;4864110;29;45371;-65
2022/11/14 04:39:34;;;;;;;;;24.25;17.50;;;;;10.45;71.74;100870.84;4863533;29;45316;-65
2022/11/14 04:42:00;;;;;;;;;22.00;17.50;;;;;10.32;72.37;100851.63;4860597;29;45476;-65
2022/11/14 04:44:25;;;;;;;;;21.00;19.25;;;;;10.50;72.07;100876.91;4830023;29;46311;-65
2022/11/14 04:46:50;;;;;;;;;19.50;16.75;;;;;10.53;72.29;100879.47;4861659;29;45457;-65
2022/11/14 04:49:16;;;;;;;;;17.25;16.25;;;;;10.45;72.04;100863.69;4850697;29;45278;-65
2022/11/14 04:51:41;;;;;;;;;16.25;15.00;;;;;10.47;71.97;100863.66;4867084;29;45328;-65
2022/11/14 04:54:07;;;;;;;;;17.50;16.25;;;;;10.54;72.07;100874.09;4849536;29;46992;-65
2022/11/14 04:56:32;;;;;;;;;15.25;12.50;;;;;10.53;72.18;100868.81;4867341;29;45483;-65
2022/11/14 04:58:57;;;;;;;;;19.25;15.50;;;;;10.41;71.95;100851.38;4867335;29;45318;-65
2022/11/14 05:01:23;;;;;;;;;20.50;15.25;;;;;10.40;72.05;100846.06;4867230;29;45416;-65
2022/11/14 05:03:48;;;;;;;;;15.00;15.00;;;;;10.48;72.17;100862.75;4867279;29;46518;-65
2022/11/14 05:06:13;;;;;;;;;18.25;16.50;;;;;10.44;72.65;100856.63;4867017;29;45656;-65
2022/11/14 05:08:39;;;;;;;;;16.75;13.50;;;;;10.35;72.07;100839.06;4867223;29;45403;-65
2022/11/14 05:11:04;;;;;;;;;18.25;16.00;;;;;10.38;71.98;100841.66;4850334;29;45436;-65
2022/11/14 05:13:30;;;;;;;;;15.75;15.75;;;;;10.46;72.23;100856.59;4868087;29;47144;-65
2022/11/14 05:15:59;;;;;;;;;16.25;14.50;;;;;10.38;72.52;100822.97;4867041;29;45486;-65
2022/11/14 05:18:25;;;;;;;;;15.50;14.25;;;;;10.36;72.66;100824.81;4866834;29;45435;-65
2022/11/14 05:20:50;;;;;;;;;17.00;16.00;;;;;10.48;72.48;100841.38;4866800;29;45423;-65
2022/11/14 05:23:21;;;;;;;;;18.25;16.75;;;;;10.43;72.37;100830.84;4862475;29;45337;-65
2022/11/14 05:26:04;;;;;;;;;17.00;16.25;;;;;10.45;72.30;100837.00;4865749;29;45476;-65
2022/11/14 05:28:29;;;;;;;;;17.00;14.50;;;;;10.49;72.15;100840.44;4846194;29;45366;-65
2022/11/14 05:31:07;;;;;;;;;17.75;17.25;;;;;10.47;72.26;100839.63;4866658;29;47069;-65
2022/11/14 05:33:33;;;;;;;;;16.50;16.50;;;;;10.45;72.52;100836.13;4865599;29;46748;-65
2022/11/14 05:36:10;;;;;;;;;18.00;16.00;;;;;10.36;72.31;100819.47;4866821;29;45445;-65
2022/11/14 05:38:35;;;;;;;;;18.00;16.75;;;;;10.29;72.58;100806.31;4849742;29;45523;-65
2022/11/14 05:41:06;;;;;;;;;17.75;10.75;;;;;10.31;72.29;100800.03;4849951;29;45531;-65
2022/11/14 05:43:31;;;;;;;;;15.25;15.25;;;;;10.39;72.10;100815.88;4866722;29;45535;-65
2022/11/14 05:46:01;;;;;;;;;21.25;16.50;;;;;10.42;72.25;100813.06;4862457;29;46192;-65
2022/11/14 05:48:27;;;;;;;;;17.00;16.00;;;;;10.31;72.18;100794.69;4863717;29;45317;-65
2022/11/14 05:50:54;;;;;;;;;16.00;15.50;;;;;10.37;72.03;100799.91;4866775;29;45300;-64
2022/11/14 05:53:19;;;;;;;;;15.75;13.50;;;;;10.28;72.30;100786.78;4849615;29;48373;-65
2022/11/14 05:55:44;;;;;;;;;18.00;16.25;;;;;10.37;72.42;100813.25;4863450;29;45375;-65
2022/11/14 05:58:10;;;;;;;;;12.75;12.75;;;;;10.32;72.56;100799.16;4866362;29;45500;-65
2022/11/14 06:00:35;;;;;;;;;18.50;16.25;;;;;10.24;72.47;100786.91;4866634;29;45438;-65
2022/11/14 06:03:00;;;;;;;;;14.75;14.25;;;;;10.37;72.29;100802.56;4849474;29;47027;-65
2022/11/14 06:05:26;;;;;;;;;19.25;16.75;;;;;10.13;72.58;100757.91;4866651;29;45462;-65
2022/11/14 06:07:56;;;;;;;;;14.50;14.50;;;;;10.31;72.41;100792.03;4866331;29;45453;-65
2022/11/14 06:10:23;;;;;;;;;16.00;14.75;;;;;10.34;72.66;100797.31;4866346;29;45475;-65
2022/11/14 06:12:48;;;;;;;;;18.00;15.00;;;;;10.31;72.54;100788.50;4849357;29;47827;-65
2022/11/14 06:15:13;;;;;;;;;20.00;16.75;;;;;10.29;72.53;100791.22;4849635;29;45656;-65
2022/11/14 06:17:39;;;;;;;;;21.25;16.75;;;;;10.26;72.73;100798.44;4866009;29;45482;-65
2022/11/14 06:20:05;;;;;;;;;13.75;11.00;;;;;10.25;72.75;100792.22;4866010;29;45570;-65
2022/11/14 06:22:30;;;;;;;;;12.25;12.25;;;;;10.26;72.91;100795.78;4861572;29;45410;-65
2022/11/14 06:24:55;;;;;;;;;15.25;12.75;;;;;10.20;73.03;100787.00;4864886;29;45461;-65
2022/11/14 06:27:21;;;;;;;;;18.50;16.75;;;;;10.24;73.23;100798.50;4865897;29;45439;-65
2022/11/14 06:29:46;;;;;;;;;14.75;12.25;;;;;10.28;73.31;100794.78;4865924;29;45396;-65
2022/11/14 06:32:12;;;;;;;;;17.00;13.50;;;;;10.28;72.95;100801.94;4862957;29;45832;-67
2022/11/14 06:34:37;;;;;;;;;18.00;17.00;;;;;10.26;73.29;100799.31;4861054;29;45535;-67
2022/11/14 06:37:04;;;;;;;;;18.50;17.25;;;;;10.28;72.80;100791.25;4864853;29;45631;-65
2022/11/14 06:39:29;;;;;;;;;16.25;13.00;;;;;10.27;72.75;100784.16;4864419;29;45428;-65
2022/11/14 06:41:54;;;;;;;;;15.00;12.75;;;;;10.28;72.81;100800.13;4849070;29;47002;-65
2022/11/14 06:44:20;;;;;;;;;17.25;16.00;;;;;10.30;72.98;100805.41;4865851;29;45358;-65
2022/11/14 06:46:45;;;;;;;;;15.25;12.00;;;;;10.35;73.62;100814.19;4864874;29;45398;-65
2022/11/14 06:49:10;;;;;;;;;16.00;15.00;;;;;10.23;73.10;100802.06;4865588;29;45554;-65
2022/11/14 06:51:36;;;;;;;;;13.25;11.50;;;;;10.23;73.04;100794.06;4861161;29;46059;-65
2022/11/14 06:54:01;;;;;;;;;16.75;11.25;;;;;10.27;72.89;100811.72;4860884;29;45375;-65
2022/11/14 06:56:27;;;;;;;;;16.25;15.00;;;;;10.24;73.14;100809.16;4847742;29;45432;-65
2022/11/14 06:58:52;;;;;;;;;15.50;14.00;;;;;10.16;73.14;100812.03;4848434;29;45378;-65
2022/11/14 07:01:20;;;;;;;;;14.75;11.25;;;;;10.28;72.98;100839.28;4863686;29;45252;-65
2022/11/14 07:03:46;;;;;;;;;20.00;14.25;;;;;10.08;72.68;100821.19;4859746;29;45646;-66
2022/11/14 07:06:31;;;;;;;;;15.50;14.50;;;;;10.18;73.38;100846.69;4856012;29;45493;-65
2022/11/14 07:08:57;;;;;;;;;16.50;14.75;;;;;10.10;73.42;100843.34;4847917;29;45524;-65
2022/11/14 07:11:28;;;;;;;;;17.00;16.75;;;;;10.16;73.12;100851.19;4865227;29;46533;-65
2022/11/14 07:14:03;;;;;;;;;18.00;16.50;;;;;10.02;73.07;100819.56;4848576;29;46647;-65
2022/11/14 07:16:31;;;;;;;;;12.75;12.75;;;;;10.18;73.70;100852.00;4846904;29;45492;-67
2022/11/14 07:18:58;;;;;;;;;15.75;15.25;;;;;10.22;73.42;100844.78;4861515;29;45548;-67
2022/11/14 07:21:25;;;;;;;;;17.50;16.50;;;;;10.04;73.13;100812.41;4842067;29;47104;-67
2022/11/14 07:23:50;;;;;;;;;18.00;15.00;;;;;10.25;73.31;100842.91;4862717;29;45462;-67
2022/11/14 07:26:16;;;;;;;;;18.25;16.00;;;;;10.27;73.18;100843.72;4846913;29;45377;-68
2022/11/14 07:28:43;;;;;;;;;18.00;17.25;;;;;10.28;73.27;100842.81;4864995;29;45849;-67
2022/11/14 07:31:11;;;;;;;;;16.75;15.50;;;;;10.30;72.54;100845.44;4845945;29;46424;-67
2022/11/14 07:33:38;;;;;;;;;16.25;15.00;;;;;10.29;72.32;100847.25;4864820;29;45316;-68
2022/11/14 07:36:04;;;;;;;;;18.50;14.00;;;;;10.17;72.47;100839.56;4847659;29;45375;-67
2022/11/14 07:38:31;;;;;;;;;17.25;13.75;;;;;10.17;73.01;100837.81;4864225;29;45354;-68
2022/11/14 07:41:01;;;;;;;;;16.00;14.00;;;;;10.02;73.03;100816.88;4845262;29;47105;-66
2022/11/14 07:43:27;;;;;;;;;14.50;14.50;;;;;10.11;72.41;100845.13;4861836;29;45693;-65
2022/11/14 07:45:57;;;;;;;;;14.75;14.00;;;;;10.17;72.57;100848.47;4848327;29;45448;-65
2022/11/14 07:48:22;;;;;;;;;15.25;13.75;;;;;10.07;73.00;100832.75;4847941;29;45373;-65
2022/11/14 07:50:48;;;;;;;;;12.25;11.50;;;;;10.11;73.03;100839.78;4845695;29;46749;-65
2022/11/14 07:53:14;;;;;;;;;13.00;13.00;;;;;9.98;73.14;100817.91;4860820;29;45530;-65
2022/11/14 07:55:39;;;;;;;;;11.75;11.00;;;;;10.08;73.06;100835.41;4864404;29;45477;-65
2022/11/14 07:58:05;;;;;;;;;13.25;13.00;;;;;10.02;73.15;100831.13;4846361;29;45625;-65
2022/11/14 08:00:30;;;;;;;;;14.75;11.50;;;;;10.12;73.11;100850.41;4863429;29;46540;-65
2022/11/14 08:02:56;;;;;;;;;10.75;10.25;;;;;10.10;72.89;100841.56;4863484;29;46478;-65
2022/11/14 08:05:21;;;;;;;;;11.25;11.25;;;;;10.01;73.30;100826.69;4864803;29;45389;-65
2022/11/14 08:07:50;;;;;;;;;11.25;9.25;;;;;9.94;73.21;100805.56;4864369;29;45300;-65
2022/11/14 08:10:16;;;;;;;;;11.50;11.25;;;;;9.98;73.24;100816.13;4860207;29;47261;-65
2022/11/14 08:12:42;;;;;;;;;9.50;9.00;;;;;10.14;72.99;100831.66;4847773;29;45774;-65
2022/11/14 08:15:11;;;;;;;;;10.50;10.50;;;;;9.91;73.34;100806.56;4846565;29;46122;-66
2022/11/14 08:17:36;;;;;;;;;15.50;13.50;;;;;10.01;72.96;100820.50;4845463;29;47324;-65
2022/11/14 08:20:03;;;;;;;;;12.00;9.25;;;;;10.09;72.95;100834.50;4841002;29;47105;-66
2022/11/14 08:22:29;;;;;;;;;12.50;11.75;;;;;9.85;73.23;100805.84;4856984;29;45870;-65
2022/11/14 08:24:55;;;;;;;;;10.75;10.75;;;;;9.94;73.10;100816.22;4864150;29;45697;-66
2022/11/14 08:27:20;;;;;;;;;10.75;10.75;;;;;9.94;73.13;100816.22;4861443;29;45503;-66
2022/11/14 08:29:46;;;;;;;;;12.25;12.25;;;;;9.99;73.19;100823.19;4847227;29;46063;-66
2022/11/14 08:32:11;;;;;;;;;10.50;9.25;;;;;10.01;73.26;100840.03;4861971;29;46054;-66
2022/11/14 08:34:36;;;;;;;;;14.25;12.25;;;;;9.92;73.07;100812.75;4864452;29;45481;-66
2022/11/14 08:37:02;;;;;;;;;11.50;10.50;;;;;10.08;73.66;100840.72;4862937;29;45631;-66
2022/11/14 08:39:28;;;;;;;;;14.25;11.50;;;;;9.86;73.64;100804.94;4861513;29;48022;-66
2022/11/14 08:41:53;;;;;;;;;10.75;10.25;;;;;10.02;73.26;100832.88;4834654;29;46080;-66
2022/11/14 08:44:19;;;;;;;;;15.50;12.75;;;;;10.11;73.20;100839.78;4863812;29;45436;-66
2022/11/14 08:46:44;;;;;;;;;17.75;14.50;;;;;10.09;73.45;100839.81;4863478;29;45535;-68
2022/11/14 08:49:09;;;;;;;;;14.50;13.75;;;;;10.09;73.63;100844.25;4846791;29;46853;-66
2022/11/14 08:51:35;;;;;;;;;15.75;13.50;;;;;10.01;73.75;100837.38;4848805;29;45895;-65
2022/11/14 08:54:01;;;;;;;;;14.25;14.00;;;;;10.07;73.79;100857.63;4863439;29;45509;-78
2022/11/14 08:56:26;;;;;;;;;15.50;14.75;;;;;10.09;73.52;100852.25;4874689;29;45419;-72
2022/11/14 08:58:52;;;;;;;;;16.25;15.00;;;;;10.06;73.75;100837.25;4863689;29;45526;-75
2022/11/14 09:01:17;;;;;;;;;22.75;20.00;;;;;10.11;73.53;100848.66;4863810;29;45446;-75
2022/11/14 09:03:42;;;;;;;;;17.00;15.75;;;;;10.12;73.85;100852.19;4868803;29;45672;-75
2022/11/14 09:06:08;;;;;;;;;24.00;23.00;;;;;10.08;73.51;100839.88;4846948;29;45570;-74
2022/11/14 09:08:33;;;;;;;;;27.00;22.50;;;;;10.12;73.93;100849.50;4846557;29;47473;-74
2022/11/14 09:11:00;;;;;;;;;16.75;16.75;;;;;9.96;74.00;100822.44;4846441;29;45394;-74
2022/11/14 09:13:26;;;;;;;;;22.75;20.25;;;;;9.93;73.73;100810.03;4863663;29;45378;-74
2022/11/14 09:15:51;;;;;;;;;17.75;17.75;;;;;10.13;73.64;100843.28;4863509;29;45277;-73
2022/11/14 09:18:17;;;;;;;;;21.75;16.00;;;;;10.16;73.98;100851.19;4863482;29;45683;-74
2022/11/14 09:20:42;;;;;;;;;19.75;18.00;;;;;10.15;73.79;100852.09;4861993;29;45369;-73
2022/11/14 09:23:08;;;;;;;;;19.50;16.00;;;;;10.06;74.01;100831.03;4863815;29;45431;-74
2022/11/14 09:25:34;;;;;;;;;19.25;17.00;;;;;10.11;73.76;100842.44;4846647;29;45666;-73
2022/11/14 09:28:04;;;;;;;;;23.00;18.50;;;;;10.16;73.75;100846.72;4863454;29;45397;-74
2022/11/14 09:30:29;;;;;;;;;23.25;20.00;;;;;10.16;73.53;100854.72;4863272;29;45775;-74
2022/11/14 09:32:59;;;;;;;;;14.75;13.00;;;;;10.12;73.57;100836.16;4863817;29;47727;-73
2022/11/14 09:35:25;;;;;;;;;14.25;13.25;;;;;10.10;73.33;100849.56;4863028;29;45701;-74
2022/11/14 09:37:58;;;;;;;;;14.50;12.75;;;;;10.07;73.92;100830.97;4866414;29;45406;-74
2022/11/14 09:40:24;;;;;;;;;16.50;13.50;;;;;10.06;73.40;100833.72;4866091;29;45716;-74
2022/11/14 09:43:08;;;;;;;;;15.75;13.75;;;;;10.12;73.94;100847.75;4866913;29;45373;-74
2022/11/14 09:45:39;;;;;;;;;14.25;14.25;;;;;10.11;73.67;100837.97;4866340;29;45459;-74
2022/11/14 09:48:12;;;;;;;;;15.25;14.25;;;;;10.09;73.87;100833.59;4848375;29;47868;-72
2022/11/14 09:50:47;;;;;;;;;16.50;14.50;;;;;9.90;73.74;100804.78;4866268;29;45570;-74
2022/11/14 09:53:33;;;;;;;;;16.00;15.00;;;;;10.12;73.62;100842.41;4866578;29;45417;-74
2022/11/14 09:55:58;;;;;;;;;17.75;15.00;;;;;10.11;73.85;100845.13;4848618;29;46028;-74
2022/11/14 09:58:25;;;;;;;;;16.50;15.00;;;;;10.10;74.05;100838.03;4849200;29;47698;-74
2022/11/14 10:01:00;;;;;;;;;19.75;16.75;;;;;10.06;73.86;100823.03;4866025;29;45276;-74
2022/11/14 10:04:14;;;;;;;;;19.50;18.00;;;;;10.00;73.82;100821.41;4866374;29;45361;-81
2022/11/14 10:07:14;;;;;;;;;17.00;16.00;;;;;10.11;74.30;100845.97;4833385;29;45274;-79
2022/11/14 10:10:08;;;;;;;;;19.25;17.00;;;;;10.08;73.89;100846.06;4741670;29;47042;-82
2022/11/14 10:12:48;;;;;;;;;17.00;14.25;;;;;10.00;74.30;100837.41;4864142;29;45519;-82
2022/11/14 10:15:22;;;;;;;;;19.00;17.25;;;;;10.04;74.14;100836.41;4849714;29;45445;-82
2022/11/14 10:18:02;;;;;;;;;21.75;16.75;;;;;10.05;74.32;100826.59;4853804;29;45585;-82
2022/11/14 10:20:40;;;;;;;;;22.00;19.25;;;;;10.12;74.17;100838.84;4866015;29;45426;-82
2022/11/14 10:23:32;;;;;;;;;22.25;16.00;;;;;10.10;74.74;100822.00;4869703;29;45841;-82
2022/11/14 10:26:28;;;;;;;;;17.00;17.00;;;;;10.23;74.59;100842.06;4848781;29;45570;-82
2022/11/14 10:29:00;;;;;;;;;17.75;15.25;;;;;10.24;74.40;100837.59;4866296;29;45642;-82
2022/11/14 10:31:52;;;;;;;;;18.00;17.75;;;;;10.26;74.78;100828.66;4866024;29;46335;-81
2022/11/14 10:34:31;;;;;;;;;21.25;19.00;;;;;10.30;74.63;100822.28;4847673;29;45583;-82
2022/11/14 10:37:31;;;;;;;;;22.75;22.75;;;;;10.38;74.66;100827.44;4866772;29;45569;-81
2022/11/14 10:40:13;;;;;;;;;25.25;21.50;;;;;10.38;74.82;100803.44;4865127;29;45472;-81
2022/11/14 10:42:42;;;;;;;;;23.50;22.00;;;;;10.41;74.86;100795.34;4865825;29;46381;-81
2022/11/14 10:45:27;;;;;;;;;18.75;18.50;;;;;10.44;74.59;100795.25;4855730;29;45415;-77
2022/11/14 10:48:19;;;;;;;;;18.50;18.00;;;;;10.54;74.00;100799.38;4863950;29;46168;-69
2022/11/14 10:50:54;;;;;;;;;23.00;20.00;;;;;10.41;74.77;100771.31;4839325;29;45632;-71
2022/11/14 10:53:30;;;;;;;;;20.75;17.25;;;;;10.61;74.35;100805.38;4860892;29;45629;-82
2022/11/14 10:55:57;;;;;;;;;23.00;23.00;;;;;10.61;74.40;100804.50;4863468;29;45500;-82
2022/11/14 10:58:23;;;;;;;;;24.75;22.75;;;;;10.60;74.40;100794.75;4848880;29;45478;-82
2022/11/14 11:00:49;;;;;;;;;25.75;24.00;;;;;10.49;74.56;100779.97;4861660;29;45247;-82
2022/11/14 11:03:14;;;;;;;;;30.25;26.25;;;;;10.56;74.17;100783.31;4864444;29;46432;-82
2022/11/14 11:05:46;;;;;;;;;28.25;23.25;;;;;10.64;74.06;100793.72;4849672;29;45937;-82
2022/11/14 11:13:56;;;;;;;;;29.25;21.25;;;;;10.78;74.41;100795.97;4860810;29;45706;-78
2022/11/14 11:16:24;;;;;;;;;31.00;29.25;;;;;10.83;74.73;100783.34;4848180;29;46506;-77
2022/11/14 11:18:49;;;;;;;;;36.50;33.00;;;;;10.84;74.20;100777.06;4865114;29;45372;-77